Kendallville, Iowa
Current Conditions -  °F | °C
As of 6:15 PM on Wednesday 28 Jan 2015 (Local Time) from KFKA Reporting Station
Overcast Overcast  
Wind Chill: 22°   Ceiling: 1700
Heat Index: 32°   Visibility: 10mi
Dew Point: 27°   Wind: 13mph
Humidity: 83%   Direction: 160°SSE
Pressure: 29.77"   Gusts: 21mph
Location:  43.363°N, 92.1685°W
Report Text: KFKA 290015Z AUTO 16011G18KT 10SM OVC017 00/M03 A2977 RMK AO2 T10021028
Loading
Personal Weather Stations






























Interactive Weather Map New forecast layout! Learn more

10-Day Weather Forecast

Advertisements
Track Severe Weather on mobile